Time;durP1;ratioP1;P1;durP2;ratioP2;P2;SDS_P1;SDS_P2;PMS_P1;PMS_P2;Temp;Humidity;BMP_temperature;BMP_pressure;BME280_temperature;BME280_humidity;BME280_pressure;Samples;Min_cycle;Max_cycle;Signal;HPM_P1;HPM_P2
2020/12/16 00:00:29;;;;;;;25.63;14.70;;;;;;;4.46;100.00;96307.63;5000152;28;20777;-69
2020/12/16 00:02:55;;;;;;;27.77;14.83;;;;;;;4.49;100.00;96310.81;4999598;28;20332;-69
2020/12/16 00:05:21;;;;;;;28.43;15.73;;;;;;;4.48;100.00;96308.31;4999597;28;20194;-70
2020/12/16 00:07:47;;;;;;;28.77;16.47;;;;;;;4.46;100.00;96310.25;5000148;28;20417;-69
2020/12/16 00:10:14;;;;;;;28.57;15.57;;;;;;;4.44;100.00;96304.34;4999671;28;20219;-70
2020/12/16 00:12:40;;;;;;;26.07;14.97;;;;;;;4.47;100.00;96298.84;4999431;28;20273;-69
2020/12/16 00:15:08;;;;;;;28.10;15.07;;;;;;;4.27;100.00;96305.84;4998417;28;20202;-69
2020/12/16 00:17:36;;;;;;;24.93;14.30;;;;;;;4.23;100.00;96314.91;4999030;28;20203;-69
2020/12/16 00:20:04;;;;;;;23.83;14.10;;;;;;;4.35;100.00;96302.56;4999871;28;20219;-70
2020/12/16 00:22:34;;;;;;;25.87;14.03;;;;;;;4.28;100.00;96314.50;4999007;28;20202;-69
2020/12/16 00:25:00;;;;;;;25.37;14.13;;;;;;;4.43;100.00;96313.13;4999240;28;20560;-69
2020/12/16 00:27:27;;;;;;;23.93;13.10;;;;;;;4.48;100.00;96309.16;4998768;28;20209;-69
2020/12/16 00:29:53;;;;;;;23.53;13.77;;;;;;;4.42;100.00;96314.09;4999209;28;20222;-69
2020/12/16 00:32:19;;;;;;;27.43;14.37;;;;;;;4.46;100.00;96316.28;4999211;28;20300;-69
2020/12/16 00:34:45;;;;;;;24.17;13.90;;;;;;;4.47;100.00;96306.69;4998715;28;20273;-69
2020/12/16 00:37:11;;;;;;;25.43;14.67;;;;;;;4.43;100.00;96303.53;4998371;28;20344;-69
2020/12/16 00:39:37;;;;;;;24.00;14.07;;;;;;;4.51;100.00;96302.84;4998710;28;20694;-69
2020/12/16 00:42:07;;;;;;;24.70;14.67;;;;;;;4.44;100.00;96312.16;4999137;28;20559;-69
2020/12/16 00:44:33;;;;;;;23.87;14.57;;;;;;;4.40;100.00;96303.81;4999260;28;20211;-69
2020/12/16 00:47:00;;;;;;;21.57;12.73;;;;;;;4.39;100.00;96309.13;4998015;28;20207;-69
2020/12/16 00:49:26;;;;;;;24.60;13.33;;;;;;;4.35;100.00;96302.56;4999240;28;20202;-69
2020/12/16 00:51:53;;;;;;;25.93;13.60;;;;;;;4.38;100.00;96302.28;4998948;28;20240;-69
2020/12/16 00:54:19;;;;;;;23.87;13.43;;;;;;;4.42;100.00;96295.84;4998692;28;20572;-69
2020/12/16 00:56:45;;;;;;;22.47;12.87;;;;;;;4.27;100.00;96295.41;4998423;28;20210;-69
2020/12/16 00:59:11;;;;;;;18.97;11.87;;;;;;;4.22;100.00;96302.81;4998609;28;20207;-69
2020/12/16 01:01:38;;;;;;;21.43;12.27;;;;;;;4.45;100.00;96303.38;4998625;28;20362;-69
2020/12/16 01:04:04;;;;;;;20.70;12.37;;;;;;;4.48;100.00;96309.16;4998935;28;20555;-69
2020/12/16 01:06:30;;;;;;;20.10;11.70;;;;;;;4.36;100.00;96304.22;4997749;28;20238;-69
2020/12/16 01:08:56;;;;;;;21.57;11.97;;;;;;;4.26;100.00;96300.78;4998316;28;20727;-69
2020/12/16 01:11:22;;;;;;;22.13;11.33;;;;;;;4.22;100.00;96306.41;4998450;28;20313;-69
2020/12/16 01:13:48;;;;;;;22.03;12.20;;;;;;;4.24;100.00;96307.94;4998450;28;20304;-69
2020/12/16 01:16:14;;;;;;;20.83;12.17;;;;;;;4.20;100.00;96313.53;4998150;28;20241;-69
2020/12/16 01:18:41;;;;;;;24.33;12.97;;;;;;;4.18;100.00;96316.28;4997604;28;20217;-69
2020/12/16 01:21:07;;;;;;;23.93;12.67;;;;;;;4.08;100.00;96307.63;4999291;28;20222;-69
2020/12/16 01:23:33;;;;;;;24.40;12.33;;;;;;;4.18;100.00;96310.25;4998002;28;20234;-70
2020/12/16 01:25:59;;;;;;;22.80;12.80;;;;;;;4.31;100.00;96304.59;4996842;28;20833;-70
2020/12/16 01:28:25;;;;;;;20.80;12.10;;;;;;;4.40;100.00;96305.56;4998357;28;20253;-70
2020/12/16 01:30:51;;;;;;;23.47;12.27;;;;;;;4.37;100.00;96305.84;4998437;28;20229;-70
2020/12/16 01:33:17;;;;;;;21.97;12.67;;;;;;;4.14;100.00;96299.25;4998092;28;20313;-70
2020/12/16 01:35:43;;;;;;;21.93;12.77;;;;;;;4.22;100.00;96297.59;4997259;28;20210;-69
2020/12/16 01:38:10;;;;;;;20.00;12.40;;;;;;;4.20;100.00;96293.53;4997662;28;20207;-70
2020/12/16 01:40:36;;;;;;;20.70;12.27;;;;;;;4.22;100.00;96297.59;4998065;28;20249;-70
2020/12/16 01:43:02;;;;;;;20.80;12.40;;;;;;;4.03;100.00;96301.19;4997643;28;20203;-70
2020/12/16 01:45:28;;;;;;;18.83;11.73;;;;;;;4.09;100.00;96301.47;4997200;28;20202;-69
2020/12/16 01:47:54;;;;;;;19.60;11.87;;;;;;;4.02;100.00;96304.75;4997953;28;20246;-70
2020/12/16 01:50:20;;;;;;;19.03;11.60;;;;;;;4.11;100.00;96309.13;4997601;28;20226;-70
2020/12/16 01:52:48;;;;;;;21.10;12.50;;;;;;;4.06;100.00;96321.75;4997706;28;20203;-70
2020/12/16 01:55:14;;;;;;;18.60;11.57;;;;;;;4.15;100.00;96318.34;4997352;28;20677;-70
2020/12/16 01:57:45;;;;;;;19.63;11.70;;;;;;;4.18;100.00;96310.25;4997297;28;20214;-70
2020/12/16 02:00:13;;;;;;;18.83;11.33;;;;;;;4.31;100.00;96307.22;4997831;28;20440;-70
2020/12/16 02:02:44;;;;;;;19.80;12.07;;;;;;;4.49;100.00;96308.19;4997903;28;20211;-70
2020/12/16 02:05:12;;;;;;;19.93;11.67;;;;;;;4.39;100.00;96309.13;4996939;28;20217;-70
2020/12/16 02:07:40;;;;;;;18.37;11.27;;;;;;;4.32;100.00;96305.44;4997872;28;20222;-70
2020/12/16 02:10:06;;;;;;;19.23;11.93;;;;;;;4.36;100.00;96302.41;4997543;28;20225;-70
2020/12/16 02:12:35;;;;;;;18.03;11.23;;;;;;;4.30;100.00;96295.16;4997916;28;20202;-70
2020/12/16 02:15:01;;;;;;;21.33;11.87;;;;;;;4.11;100.00;96298.72;4996559;28;20646;-70
2020/12/16 02:17:27;;;;;;;18.33;11.50;;;;;;;4.28;100.00;96304.06;4997965;28;20245;-70
2020/12/16 02:19:55;;;;;;;17.03;11.03;;;;;;;4.07;100.00;96303.38;4996793;28;20237;-70
2020/12/16 02:22:22;;;;;;;18.53;11.03;;;;;;;3.88;100.00;96299.91;4997783;28;20229;-70
2020/12/16 02:24:58;;;;;;;19.63;11.70;;;;;;;4.01;100.00;96303.94;4997265;28;20638;-70
2020/12/16 02:27:25;;;;;;;18.13;10.83;;;;;;;3.98;100.00;96295.53;4997729;28;20202;-70
2020/12/16 02:29:51;;;;;;;17.17;11.00;;;;;;;4.08;100.00;96307.63;4997031;28;20230;-70
2020/12/16 02:32:19;;;;;;;18.70;11.03;;;;;;;4.18;100.00;96316.28;4997176;28;20206;-70
2020/12/16 02:34:45;;;;;;;16.97;10.73;;;;;;;4.31;100.00;96306.41;4997647;28;20640;-70
2020/12/16 02:37:11;;;;;;;17.00;10.43;;;;;;;4.30;100.00;96312.56;4998957;28;20206;-70
2020/12/16 02:39:37;;;;;;;17.03;10.30;;;;;;;4.42;100.00;96316.72;5001083;28;20213;-70
2020/12/16 02:42:05;;;;;;;17.13;10.13;;;;;;;4.28;100.00;96312.72;5001228;28;20463;-70
2020/12/16 02:44:32;;;;;;;18.50;10.73;;;;;;;3.93;100.00;96319.41;5001986;28;20202;-70
2020/12/16 02:47:01;;;;;;;19.93;10.57;;;;;;;3.98;100.00;96327.63;5000367;28;20202;-70
2020/12/16 02:49:27;;;;;;;18.10;10.43;;;;;;;3.98;100.00;96335.47;5000927;28;21210;-70
2020/12/16 02:51:53;;;;;;;17.53;10.93;;;;;;;4.00;100.00;96332.75;5001179;28;20231;-70
2020/12/16 02:54:19;;;;;;;27.87;12.23;;;;;;;4.04;100.00;96329.72;5001405;28;20222;-70
2020/12/16 02:56:49;;;;;;;55.83;13.03;;;;;;;3.87;100.00;96329.53;5000187;28;20228;-70
2020/12/16 02:59:17;;;;;;;78.07;12.70;;;;;;;3.67;100.00;96333.88;5000843;28;20198;-70
2020/12/16 03:01:43;;;;;;;73.57;12.80;;;;;;;3.55;100.00;96341.13;5000812;28;20213;-70
2020/12/16 03:04:09;;;;;;;45.70;12.50;;;;;;;3.64;100.00;96331.56;5001185;28;20195;-70
2020/12/16 03:06:35;;;;;;;84.30;13.03;;;;;;;3.74;100.00;96334.19;5000042;28;20234;-69
2020/12/16 03:09:01;;;;;;;62.90;12.97;;;;;;;3.86;100.00;96336.56;5000773;28;20216;-70
2020/12/16 03:11:27;;;;;;;39.80;12.50;;;;;;;3.86;100.00;96336.56;5000390;28;20232;-70
2020/12/16 03:13:53;;;;;;;69.43;12.83;;;;;;;3.92;100.00;96338.63;5000492;28;20602;-70
2020/12/16 03:16:20;;;;;;;25.33;11.67;;;;;;;4.06;100.00;96343.47;5000234;28;20202;-70
2020/12/16 03:18:46;;;;;;;32.73;13.10;;;;;;;4.17;100.00;96347.72;5000954;28;20207;-69
2020/12/16 03:21:12;;;;;;;24.53;12.57;;;;;;;4.15;100.00;96340.03;5000173;28;21045;-70
2020/12/16 03:23:38;;;;;;;32.27;12.63;;;;;;;4.19;100.00;96337.97;5000990;28;20207;-70
2020/12/16 03:26:05;;;;;;;22.67;11.77;;;;;;;4.07;100.00;96333.84;4999964;28;20209;-70
2020/12/16 03:28:31;;;;;;;21.13;11.47;;;;;;;4.00;100.00;96330.94;4999942;28;20697;-70
2020/12/16 03:30:57;;;;;;;18.50;11.07;;;;;;;4.04;100.00;96328.91;5000388;28;20237;-70
2020/12/16 03:33:24;;;;;;;21.57;11.33;;;;;;;4.11;100.00;96333.44;5000291;28;20602;-70
2020/12/16 03:35:50;;;;;;;19.40;11.23;;;;;;;4.15;100.00;96342.66;4999239;28;20397;-70
2020/12/16 03:38:16;;;;;;;19.10;10.83;;;;;;;4.20;100.00;96335.25;4999690;28;20203;-70
2020/12/16 03:40:42;;;;;;;22.63;11.10;;;;;;;3.97;100.00;96331.22;4999223;28;20254;-70
2020/12/16 03:43:08;;;;;;;21.30;11.83;;;;;;;3.74;100.00;96335.03;4999555;28;20281;-70
2020/12/16 03:45:34;;;;;;;21.60;11.53;;;;;;;3.94;100.00;96326.25;5000050;28;20241;-69
2020/12/16 03:48:00;;;;;;;19.43;10.87;;;;;;;3.77;100.00;96326.94;4999999;28;20744;-70
2020/12/16 03:50:27;;;;;;;21.30;11.87;;;;;;;3.62;100.00;96330.84;5000184;28;20277;-70
2020/12/16 03:52:52;;;;;;;22.10;12.10;;;;;;;3.57;100.00;96328.81;4999603;28;20228;-70
2020/12/16 03:55:18;;;;;;;19.73;11.40;;;;;;;3.61;100.00;96336.19;4999717;28;20206;-70
2020/12/16 03:57:44;;;;;;;21.23;11.97;;;;;;;3.54;100.00;96340.31;5000453;28;20629;-69
2020/12/16 04:00:10;;;;;;;19.40;11.60;;;;;;;3.62;100.00;96345.69;4999856;28;20226;-70
2020/12/16 04:02:37;;;;;;;25.30;12.90;;;;;;;3.59;100.00;96351.16;5000082;28;20198;-70
2020/12/16 04:05:04;;;;;;;22.17;12.33;;;;;;;3.74;100.00;96345.44;4999436;28;20226;-70
2020/12/16 04:07:30;;;;;;;21.47;12.33;;;;;;;3.89;100.00;96344.09;4998754;28;20218;-70
2020/12/16 04:09:57;;;;;;;23.23;12.43;;;;;;;3.93;100.00;96342.84;5000100;28;20226;-70
2020/12/16 04:12:23;;;;;;;23.90;12.40;;;;;;;4.02;100.00;96346.44;4999498;28;20565;-70
2020/12/16 04:14:49;;;;;;;21.13;11.90;;;;;;;4.08;100.00;96354.56;4999620;28;20222;-70
2020/12/16 04:17:15;;;;;;;19.27;11.07;;;;;;;4.03;100.00;96354.13;4999134;28;20209;-70
2020/12/16 04:19:41;;;;;;;20.97;11.23;;;;;;;4.06;100.00;96364.31;4999672;28;20289;-70
2020/12/16 04:22:07;;;;;;;24.30;12.63;;;;;;;4.20;100.00;96356.09;4998991;28;20199;-70
2020/12/16 04:24:34;;;;;;;28.13;13.67;;;;;;;4.28;100.00;96364.06;4999573;28;20260;-70
2020/12/16 04:27:00;;;;;;;25.20;13.33;;;;;;;4.29;100.00;96363.09;4998779;28;20253;-70
2020/12/16 04:29:26;;;;;;;28.47;13.73;;;;;;;4.18;100.00;96367.63;4999414;28;20268;-70
2020/12/16 04:31:53;;;;;;;25.87;12.93;;;;;;;4.25;100.00;96361.72;4999351;28;20206;-70
2020/12/16 04:34:19;;;;;;;23.37;12.80;;;;;;;4.28;100.00;96369.28;4999322;28;20223;-70
2020/12/16 04:36:47;;;;;;;23.97;12.43;;;;;;;4.40;100.00;96363.81;4998632;28;20217;-69
2020/12/16 04:39:13;;;;;;;25.37;12.77;;;;;;;4.24;100.00;96366.09;4998612;28;20202;-70
2020/12/16 04:41:40;;;;;;;25.27;13.83;;;;;;;4.43;100.00;96362.69;4999138;28;20277;-70
2020/12/16 04:44:09;;;;;;;28.67;13.23;;;;;;;4.26;100.00;96365.97;4999117;28;20195;-70
2020/12/16 04:46:39;;;;;;;27.30;13.33;;;;;;;4.07;100.00;96365.94;4998257;28;20217;-70
2020/12/16 04:49:05;;;;;;;25.73;13.00;;;;;;;4.15;100.00;96367.88;4998266;28;20202;-70
2020/12/16 04:51:33;;;;;;;27.50;13.87;;;;;;;4.34;100.00;96366.09;4999486;28;20726;-70
2020/12/16 04:54:00;;;;;;;23.47;12.27;;;;;;;4.30;100.00;96370.78;4998756;28;20219;-70
2020/12/16 04:56:26;;;;;;;27.20;13.80;;;;;;;4.30;100.00;96372.56;4998208;28;20630;-70
2020/12/16 04:58:54;;;;;;;26.73;13.07;;;;;;;4.40;100.00;96378.63;4999162;28;21154;-70
2020/12/16 05:01:20;;;;;;;27.07;14.40;;;;;;;4.42;100.00;96384.53;4999132;28;20227;-70
2020/12/16 05:03:46;;;;;;;26.67;13.57;;;;;;;4.63;100.00;96380.00;4998420;28;20209;-70
2020/12/16 05:06:12;;;;;;;28.87;13.80;;;;;;;4.49;100.00;96378.63;4998028;28;20209;-70
2020/12/16 05:08:38;;;;;;;27.17;13.80;;;;;;;4.53;100.00;96379.16;4999055;28;20222;-70
2020/12/16 05:11:05;;;;;;;27.03;13.97;;;;;;;4.66;100.00;96390.16;4998350;28;20222;-69
2020/12/16 05:13:31;;;;;;;29.43;14.03;;;;;;;4.64;100.00;96389.47;4998519;28;20350;-69
2020/12/16 05:16:03;;;;;;;27.40;13.87;;;;;;;4.44;100.00;96388.66;4997866;28;20237;-70
2020/12/16 05:18:29;;;;;;;26.17;13.03;;;;;;;4.35;100.00;96396.47;4998593;28;20206;-70
2020/12/16 05:20:56;;;;;;;28.43;14.07;;;;;;;4.45;100.00;96392.06;4998083;28;20597;-70
2020/12/16 05:23:24;;;;;;;30.30;14.27;;;;;;;4.56;100.00;96394.56;4998395;28;20199;-70
2020/12/16 05:25:58;;;;;;;26.10;13.43;;;;;;;4.68;100.00;96394.28;4997517;28;20202;-70
2020/12/16 05:28:29;;;;;;;27.90;14.57;;;;;;;4.73;100.00;96391.25;4998354;28;20258;-70
2020/12/16 05:30:56;;;;;;;30.67;13.93;;;;;;;4.80;100.00;96406.25;4998055;28;20566;-70
2020/12/16 05:33:24;;;;;;;32.33;14.83;;;;;;;4.80;100.00;96408.00;4998094;28;20230;-70
2020/12/16 05:35:52;;;;;;;30.30;14.70;;;;;;;4.66;100.00;96406.66;4997485;28;20202;-70
2020/12/16 05:38:18;;;;;;;33.43;16.17;;;;;;;4.70;100.00;96400.19;4998328;28;20209;-70
2020/12/16 05:40:44;;;;;;;32.70;14.87;;;;;;;4.71;100.00;96394.00;4998273;28;20303;-70
2020/12/16 05:43:21;;;;;;;32.07;15.10;;;;;;;4.68;100.00;96398.69;4997921;28;20614;-70
2020/12/16 05:45:47;;;;;;;35.53;16.03;;;;;;;4.65;100.00;96404.19;4997454;28;20209;-70
2020/12/16 05:48:13;;;;;;;33.50;15.80;;;;;;;4.60;100.00;96409.00;4998183;28;20213;-70
2020/12/16 05:50:45;;;;;;;31.67;15.30;;;;;;;4.75;100.00;96411.03;4997766;28;20226;-70
2020/12/16 05:53:17;;;;;;;39.23;15.73;;;;;;;4.71;100.00;96416.66;4997977;28;20238;-70
2020/12/16 05:55:48;;;;;;;34.57;16.40;;;;;;;4.70;100.00;96409.78;4997284;28;20667;-70
2020/12/16 05:58:16;;;;;;;38.07;16.70;;;;;;;4.52;100.00;96417.50;4997759;28;20265;-69
2020/12/16 06:00:54;;;;;;;39.03;16.47;;;;;;;4.46;100.00;96422.44;4997744;28;20222;-69
2020/12/16 06:03:24;;;;;;;34.07;15.77;;;;;;;4.54;100.00;96419.97;4998221;28;20662;-69
2020/12/16 06:05:54;;;;;;;32.87;16.10;;;;;;;4.61;100.00;96415.81;4996810;28;20210;-69
2020/12/16 06:08:22;;;;;;;39.07;16.47;;;;;;;4.56;100.00;96415.44;4997577;28;21023;-69
2020/12/16 06:10:50;;;;;;;39.70;17.50;;;;;;;4.60;100.00;96422.03;4997958;28;20226;-70
2020/12/16 06:13:17;;;;;;;39.37;17.13;;;;;;;4.56;100.00;96423.28;4996434;28;20226;-70
2020/12/16 06:15:56;;;;;;;38.90;16.80;;;;;;;4.50;100.00;96421.19;4996492;28;20264;-69
2020/12/16 06:18:24;;;;;;;37.87;17.20;;;;;;;4.46;100.00;96425.03;4997742;28;20206;-69
2020/12/16 06:20:50;;;;;;;37.17;17.03;;;;;;;4.39;100.00;96429.13;4997461;28;20626;-69
2020/12/16 06:23:26;;;;;;;33.17;15.67;;;;;;;4.47;100.00;96427.50;4997801;28;20198;-69
2020/12/16 06:25:54;;;;;;;36.20;16.43;;;;;;;4.54;100.00;96427.78;4996108;28;20206;-69
2020/12/16 06:28:21;;;;;;;34.43;16.53;;;;;;;4.59;100.00;96433.44;4997606;28;20202;-69
2020/12/16 06:30:52;;;;;;;36.67;17.03;;;;;;;4.52;100.00;96435.75;4997653;28;20891;-70
2020/12/16 06:33:27;;;;;;;37.87;17.33;;;;;;;4.53;100.00;96434.81;4997189;28;20260;-70
2020/12/16 06:35:58;;;;;;;35.10;16.83;;;;;;;4.50;100.00;96435.06;4997391;28;20233;-70
2020/12/16 06:38:25;;;;;;;43.10;17.50;;;;;;;4.48;100.00;96438.75;4996869;28;20666;-70
2020/12/16 06:40:53;;;;;;;43.97;18.50;;;;;;;4.35;100.00;96433.81;4996965;28;20226;-70
2020/12/16 06:43:38;;;;;;;43.13;18.43;;;;;;;4.29;100.00;96434.34;4997546;28;20690;-70
2020/12/16 06:46:45;;;;;;;40.80;17.63;;;;;;;4.26;100.00;96439.00;4995698;28;20229;-70
2020/12/16 06:49:38;;;;;;;45.53;19.80;;;;;;;4.17;100.00;96449.41;4996830;28;20206;-70
2020/12/16 06:52:07;;;;;;;41.10;19.23;;;;;;;4.17;100.00;96455.44;4996392;28;20203;-70
2020/12/16 06:54:44;;;;;;;44.17;19.17;;;;;;;4.25;100.00;96453.00;4997441;28;20268;-70
2020/12/16 06:57:13;;;;;;;44.13;19.00;;;;;;;4.23;100.00;96447.09;4995708;28;20733;-70
2020/12/16 06:59:56;;;;;;;41.63;19.20;;;;;;;4.22;100.00;96458.47;4997391;28;20218;-70
2020/12/16 07:02:31;;;;;;;43.57;19.03;;;;;;;4.15;100.00;96446.94;4996657;28;20256;-70
2020/12/16 07:04:59;;;;;;;45.33;19.47;;;;;;;4.11;100.00;96450.78;4996928;28;20289;-70
2020/12/16 07:07:58;;;;;;;45.67;18.93;;;;;;;4.16;100.00;96437.34;4996697;28;20210;-70
2020/12/16 07:10:41;;;;;;;50.17;20.20;;;;;;;3.87;100.00;96444.22;4997138;28;20646;-70
2020/12/16 07:13:16;;;;;;;45.77;18.90;;;;;;;3.80;100.00;96451.75;4996642;28;20194;-70
2020/12/16 07:15:44;;;;;;;42.73;18.93;;;;;;;3.81;100.00;96453.41;4996410;28;20221;-70
2020/12/16 07:18:28;;;;;;;43.27;17.10;;;;;;;4.57;100.00;96456.22;4996699;28;20206;-70
2020/12/16 07:21:15;;;;;;;42.63;18.83;;;;;;;5.08;100.00;96455.81;4997195;28;20234;-70
2020/12/16 07:23:43;;;;;;;43.47;18.50;;;;;;;5.02;100.00;96469.44;4999106;28;20206;-70
2020/12/16 07:26:17;;;;;;;46.97;19.43;;;;;;;4.65;100.00;96477.25;4999327;28;20199;-70
2020/12/16 07:28:42;;;;;;;78.73;19.50;;;;;;;4.44;100.00;96482.56;5000632;28;20206;-70
2020/12/16 07:31:08;;;;;;;54.63;20.53;;;;;;;4.40;100.00;96488.19;5000790;28;20229;-70
2020/12/16 07:33:35;;;;;;;57.17;20.27;;;;;;;4.40;100.00;96488.19;4999395;28;20230;-70
2020/12/16 07:36:02;;;;;;;62.30;20.77;;;;;;;4.26;100.00;96486.78;4999924;28;20257;-70
2020/12/16 07:38:28;;;;;;;61.97;20.77;;;;;;;4.24;100.00;96490.47;5000457;28;20199;-70
2020/12/16 07:40:55;;;;;;;88.93;22.53;;;;;;;4.16;100.00;96494.69;5000760;28;20223;-70
2020/12/16 07:43:23;;;;;;;56.60;20.43;;;;;;;4.27;100.00;96495.44;4999995;28;20203;-70
2020/12/16 07:46:01;;;;;;;66.57;22.23;;;;;;;4.23;100.00;96496.66;4999680;28;20264;-70
2020/12/16 07:48:27;;;;;;;64.63;21.77;;;;;;;4.22;100.00;96495.00;4999945;28;20626;-70
2020/12/16 07:50:58;;;;;;;63.77;20.97;;;;;;;4.27;100.00;96501.44;5000176;28;20265;-70
2020/12/16 07:53:24;;;;;;;79.80;21.53;;;;;;;4.35;100.00;96506.84;4999575;28;20717;-70
2020/12/16 07:55:56;;;;;;;51.93;20.83;;;;;;;4.45;100.00;96507.69;4999388;28;20203;-70
2020/12/16 07:58:23;;;;;;;85.60;20.37;;;;;;;4.48;100.00;96511.81;4999527;28;20218;-70
2020/12/16 08:00:49;;;;;;;49.40;18.80;;;;;;;4.37;100.00;96509.31;4999726;28;20222;-70
2020/12/16 08:03:16;;;;;;;40.70;17.97;;;;;;;4.46;100.00;96498.91;5000116;28;20199;-70
2020/12/16 08:05:42;;;;;;;54.77;20.63;;;;;;;4.51;100.00;96508.97;4998859;28;20209;-70
2020/12/16 08:08:09;;;;;;;53.10;20.23;;;;;;;4.56;100.00;96504.16;4999378;28;20211;-70
2020/12/16 08:10:35;;;;;;;44.53;19.93;;;;;;;4.57;100.00;96508.41;4999586;28;20226;-70
2020/12/16 08:13:01;;;;;;;42.30;18.90;;;;;;;4.59;100.00;96512.53;4999266;28;20209;-70
2020/12/16 08:15:29;;;;;;;42.27;19.23;;;;;;;4.63;100.00;96518.31;4998204;28;20770;-70
2020/12/16 08:17:56;;;;;;;40.17;18.53;;;;;;;4.64;100.00;96507.72;4999648;28;20269;-70
2020/12/16 08:20:23;;;;;;;45.23;18.90;;;;;;;4.69;100.00;96515.19;5000134;28;20550;-69
2020/12/16 08:22:50;;;;;;;43.20;19.03;;;;;;;4.73;100.00;96524.38;4998941;28;20214;-72
2020/12/16 08:25:18;;;;;;;42.47;18.80;;;;;;;4.58;100.00;96512.66;4997733;28;20249;-71
2020/12/16 08:27:46;;;;;;;38.70;17.73;;;;;;;4.64;100.00;96526.00;4998922;28;20673;-71
2020/12/16 08:30:14;;;;;;;42.83;18.40;;;;;;;4.57;100.00;96526.66;4998105;28;20234;-69
2020/12/16 08:32:50;;;;;;;43.63;19.10;;;;;;;4.58;100.00;96517.88;4999348;28;20233;-71
2020/12/16 08:35:19;;;;;;;42.60;18.80;;;;;;;4.80;100.00;96523.72;4998936;28;20281;-71
2020/12/16 08:37:53;;;;;;;41.33;18.67;;;;;;;4.81;100.00;96519.31;4999250;28;20578;-70
2020/12/16 08:40:20;;;;;;;37.80;17.53;;;;;;;4.81;100.00;96514.09;4997441;28;20776;-72
2020/12/16 08:42:47;;;;;;;35.27;16.87;;;;;;;4.78;100.00;96519.59;4999838;28;20203;-71
2020/12/16 08:45:13;;;;;;;35.87;17.37;;;;;;;4.87;100.00;96515.22;4998276;28;20194;-72
2020/12/16 08:47:39;;;;;;;37.00;18.00;;;;;;;4.93;100.00;96519.06;4998869;28;20767;-72
2020/12/16 08:50:13;;;;;;;37.60;18.10;;;;;;;4.90;100.00;96514.94;4998431;28;20663;-73
2020/12/16 08:52:43;;;;;;;41.33;18.77;;;;;;;4.92;100.00;96520.00;4998700;28;20237;-71
2020/12/16 08:55:14;;;;;;;42.83;19.00;;;;;;;4.96;100.00;96519.63;4997575;28;20718;-72
2020/12/16 08:57:50;;;;;;;42.20;19.20;;;;;;;4.92;100.00;96518.22;4999378;28;21305;-72
2020/12/16 09:00:16;;;;;;;38.10;18.60;;;;;;;4.97;100.00;96512.59;4998860;28;20221;-72
2020/12/16 09:02:42;;;;;;;34.03;17.43;;;;;;;4.92;100.00;96526.03;4998948;28;20264;-72
2020/12/16 09:05:08;;;;;;;33.93;17.33;;;;;;;4.98;100.00;96519.47;4997830;28;20222;-72
2020/12/16 09:07:35;;;;;;;36.27;17.43;;;;;;;5.07;100.00;96516.84;4998271;28;20210;-72
2020/12/16 09:10:02;;;;;;;35.30;16.43;;;;;;;5.27;100.00;96522.91;4998408;28;20293;-72
2020/12/16 09:12:28;;;;;;;33.83;17.27;;;;;;;5.35;100.00;96526.47;4999013;28;20202;-72
2020/12/16 09:14:56;;;;;;;29.83;16.07;;;;;;;5.48;100.00;96527.00;4998576;28;20222;-71
2020/12/16 09:17:23;;;;;;;35.03;18.20;;;;;;;5.61;100.00;96527.53;4998092;28;21011;-72
2020/12/16 09:19:49;;;;;;;44.20;21.13;;;;;;;5.69;100.00;96530.28;4997927;28;20222;-72
2020/12/16 09:22:21;;;;;;;38.93;19.80;;;;;;;5.78;100.00;96539.91;4998880;28;20206;-72
2020/12/16 09:24:47;;;;;;;41.23;19.67;;;;;;;5.92;100.00;96534.25;4998286;28;20234;-71
2020/12/16 09:27:13;;;;;;;35.00;17.70;;;;;;;5.96;100.00;96533.00;4997719;28;21053;-72
2020/12/16 09:29:44;;;;;;;29.93;16.60;;;;;;;6.11;100.00;96537.66;4998009;28;20210;-71
2020/12/16 09:32:11;;;;;;;31.47;16.77;;;;;;;6.11;100.00;96543.69;4999141;28;20206;-71
2020/12/16 09:34:39;;;;;;;38.87;19.53;;;;;;;6.19;100.00;96540.38;4997768;28;20233;-71
2020/12/16 09:37:13;;;;;;;46.43;22.70;;;;;;;6.33;100.00;96540.72;4997827;28;20309;-73
2020/12/16 09:39:40;;;;;;;33.80;17.63;;;;;;;6.47;100.00;96537.63;4997876;28;20214;-72
2020/12/16 09:42:10;;;;;;;38.73;17.70;;;;;;;6.53;100.00;96539.69;4998040;28;20662;-71
2020/12/16 09:44:36;;;;;;;42.77;19.93;;;;;;;6.70;100.00;96542.31;4998637;28;20297;-71
2020/12/16 09:47:13;;;;;;;36.97;17.37;;;;;;;6.72;100.00;96544.78;4996659;28;20210;-72
2020/12/16 09:49:40;;;;;;;35.50;17.37;;;;;;;6.81;100.00;96529.03;4997992;28;20210;-73
2020/12/16 09:52:23;;;;;;;41.50;19.03;;;;;;;6.89;100.00;96525.69;4997749;28;20199;-72
2020/12/16 09:54:50;;;;;;;41.60;20.03;;;;;;;6.96;100.00;96521.50;4997787;28;20763;-71
2020/12/16 09:57:20;;;;;;;47.43;21.53;;;;;;;7.05;100.00;96521.44;4996800;28;20203;-71
2020/12/16 09:59:46;;;;;;;44.57;20.30;;;;;;;7.09;100.00;96527.19;4997768;28;20233;-71
2020/12/16 10:02:12;;;;;;;41.83;19.80;;;;;;;7.06;100.00;96524.88;4997836;28;20203;-72
2020/12/16 10:04:38;;;;;;;37.77;18.40;;;;;;;7.18;100.00;96513.19;4998028;28;20206;-72
2020/12/16 10:07:04;;;;;;;37.63;18.80;;;;;;;7.21;100.00;96511.09;4996246;28;20310;-72
2020/12/16 10:09:35;;;;;;;36.00;17.70;;;;;;;7.27;100.00;96508.72;4997646;28;20203;-72
2020/12/16 10:12:03;;;;;;;39.43;19.40;;;;;;;7.26;100.00;96513.28;4997391;28;20210;-71
2020/12/16 10:14:29;;;;;;;37.17;19.10;;;;;;;7.35;100.00;96516.63;4997300;28;20590;-72
2020/12/16 10:16:55;;;;;;;35.80;17.67;;;;;;;7.38;100.00;96505.88;4996563;28;20206;-72
2020/12/16 10:19:21;;;;;;;29.73;16.00;;;;;;;7.53;100.00;96506.16;4997094;28;20202;-72
2020/12/16 10:21:47;;;;;;;29.83;15.37;;;;;;;7.61;100.00;96506.19;4997173;28;20213;-72
2020/12/16 10:24:13;;;;;;;36.10;16.87;;;;;;;7.70;100.00;96498.25;4997416;28;20202;-71
2020/12/16 10:26:39;;;;;;;28.10;15.37;;;;;;;7.71;100.00;96496.44;4997094;28;20214;-72
2020/12/16 10:29:06;;;;;;;29.47;15.60;;;;;;;7.68;100.00;96494.13;4997517;28;20697;-72
2020/12/16 10:31:32;;;;;;;28.20;14.87;;;;;;;7.76;100.00;96496.81;4996116;28;20292;-72
2020/12/16 10:33:58;;;;;;;28.53;15.17;;;;;;;7.93;100.00;96488.91;4998210;28;20593;-72
2020/12/16 10:36:24;;;;;;;27.27;14.47;;;;;;;8.17;100.00;96496.94;4996310;28;20233;-72
2020/12/16 10:38:50;;;;;;;25.17;14.50;;;;;;;8.07;100.00;96489.16;4997703;28;20210;-71
2020/12/16 10:41:16;;;;;;;28.40;14.80;;;;;;;8.13;100.00;96485.06;4996278;28;20222;-72
2020/12/16 10:43:42;;;;;;;26.67;14.87;;;;;;;8.17;100.00;96487.28;4997928;28;20213;-72
2020/12/16 10:46:09;;;;;;;29.93;15.33;;;;;;;8.21;100.00;96499.09;4996518;28;20213;-72
2020/12/16 10:48:35;;;;;;;33.97;16.60;;;;;;;8.24;100.00;96498.78;4996960;28;20203;-72
2020/12/16 10:51:02;;;;;;;35.20;16.83;;;;;;;8.32;100.00;96503.25;4997293;28;20602;-72
2020/12/16 10:53:28;;;;;;;31.50;16.97;;;;;;;8.40;100.00;96498.88;4996951;28;20198;-72
2020/12/16 10:55:55;;;;;;;31.97;17.33;;;;;;;8.57;100.00;96506.63;4996413;28;20202;-72
2020/12/16 10:58:23;;;;;;;33.80;17.57;;;;;;;8.67;100.00;96498.66;4998765;28;20206;-72
2020/12/16 11:00:48;;;;;;;30.87;16.20;;;;;;;8.67;100.00;96498.66;5001598;28;20288;-72
2020/12/16 11:03:14;;;;;;;30.47;16.13;;;;;;;8.74;100.00;96497.81;5000878;28;20677;-72
2020/12/16 11:05:40;;;;;;;38.13;18.03;;;;;;;8.87;100.00;96492.97;5001019;28;20287;-72
2020/12/16 11:08:06;;;;;;;31.47;15.97;;;;;;;8.86;100.00;96486.06;5000983;28;20373;-72
2020/12/16 11:10:32;;;;;;;30.23;16.20;;;;;;;8.67;100.00;96491.56;5000949;28;20229;-72
2020/12/16 11:12:58;;;;;;;28.43;15.53;;;;;;;8.81;100.00;96483.09;5000461;28;20206;-72
2020/12/16 11:15:25;;;;;;;28.40;15.60;;;;;;;8.82;100.00;96482.09;5000401;28;20317;-72
2020/12/16 11:17:51;;;;;;;27.87;15.70;;;;;;;8.78;100.00;96483.41;5000741;28;20229;-72
2020/12/16 11:20:17;;;;;;;27.60;16.43;;;;;;;8.75;100.00;96477.66;5000560;28;20733;-72